Time;durP1;ratioP1;P1;durP2;ratioP2;P2;SDS_P1;SDS_P2;PMS_P1;PMS_P2;Temp;Humidity;BMP_temperature;BMP_pressure;BME280_temperature;BME280_humidity;BME280_pressure;Samples;Min_cycle;Max_cycle;Signal;HPM_P1;HPM_P2
2023/05/24 00:00:59;;;;;;;9.57;3.03;;;11.30;99.90;;;;;;5076866;28;20465;-69
2023/05/24 00:03:26;;;;;;;16.53;3.60;;;11.30;99.90;;;;;;5076862;28;20462;-69
2023/05/24 00:05:53;;;;;;;11.73;3.17;;;11.30;99.90;;;;;;5077123;28;20497;-70
2023/05/24 00:08:20;;;;;;;10.00;2.90;;;11.30;99.90;;;;;;5077232;28;20819;-71
2023/05/24 00:10:48;;;;;;;11.70;3.87;;;11.20;99.90;;;;;;5077146;28;20458;-70
2023/05/24 00:13:15;;;;;;;8.57;2.97;;;11.30;99.90;;;;;;5076784;28;20553;-72
2023/05/24 00:15:42;;;;;;;12.93;3.60;;;11.30;99.90;;;;;;5077056;28;20457;-71
2023/05/24 00:18:09;;;;;;;9.80;3.57;;;11.30;99.90;;;;;;5077079;28;20450;-69
2023/05/24 00:20:36;;;;;;;8.60;2.87;;;11.30;99.90;;;;;;5077266;28;20461;-72
2023/05/24 00:23:02;;;;;;;9.37;3.07;;;11.30;99.90;;;;;;5076832;28;20467;-69
2023/05/24 00:25:29;;;;;;;9.37;3.30;;;11.30;99.90;;;;;;5076696;28;20462;-70
2023/05/24 00:27:58;;;;;;;8.40;3.40;;;11.30;99.90;;;;;;5076810;28;20574;-71
2023/05/24 00:30:25;;;;;;;11.33;3.40;;;11.30;99.90;;;;;;5076190;28;20454;-70
2023/05/24 00:32:52;;;;;;;13.20;3.10;;;11.20;99.90;;;;;;5076465;28;20454;-71
2023/05/24 00:35:18;;;;;;;11.53;3.40;;;11.20;99.90;;;;;;5076741;28;20534;-68
2023/05/24 00:37:45;;;;;;;6.53;3.03;;;11.20;99.90;;;;;;5075882;28;20462;-68
2023/05/24 00:40:13;;;;;;;6.07;2.63;;;11.10;99.90;;;;;;5076649;28;20453;-69
2023/05/24 00:42:40;;;;;;;13.27;3.90;;;11.10;99.90;;;;;;5075796;28;20545;-68
2023/05/24 00:45:09;;;;;;;11.70;3.23;;;11.00;99.90;;;;;;5075819;28;20457;-68
2023/05/24 00:47:37;;;;;;;14.73;3.33;;;11.00;99.90;;;;;;5075822;28;21024;-69
2023/05/24 00:50:04;;;;;;;8.87;3.10;;;11.00;99.90;;;;;;5076033;28;20753;-69
2023/05/24 00:52:31;;;;;;;12.67;3.43;;;11.00;99.90;;;;;;5075687;28;20956;-68
2023/05/24 00:54:58;;;;;;;9.90;3.47;;;11.00;99.90;;;;;;5075597;28;20458;-69
2023/05/24 00:57:26;;;;;;;11.53;4.00;;;11.00;99.90;;;;;;5074654;28;20460;-69
2023/05/24 00:59:53;;;;;;;12.90;3.33;;;11.10;99.90;;;;;;5075725;28;20624;-68
2023/05/24 01:02:21;;;;;;;8.47;3.10;;;11.10;99.90;;;;;;5075861;28;20458;-69
2023/05/24 01:04:48;;;;;;;10.73;2.90;;;11.10;99.90;;;;;;5075549;28;20537;-68
2023/05/24 01:07:22;;;;;;;10.93;2.80;;;11.20;99.90;;;;;;5075528;28;20539;-69
2023/05/24 01:10:03;;;;;;;8.90;2.50;;;11.20;99.90;;;;;;5075211;28;20513;-69
2023/05/24 01:12:46;;;;;;;6.90;2.63;;;11.20;99.90;;;;;;5075245;28;20900;-69
2023/05/24 01:15:22;;;;;;;8.27;3.33;;;11.10;99.90;;;;;;5075520;28;20449;-69
2023/05/24 01:18:00;;;;;;;13.33;4.10;;;11.10;99.90;;;;;;5075689;28;20805;-69
2023/05/24 01:20:30;;;;;;;5.47;2.60;;;11.10;99.90;;;;;;5075400;28;20537;-69
2023/05/24 01:23:21;;;;;;;11.67;3.77;;;11.10;99.90;;;;;;5075092;28;20882;-69
2023/05/24 01:26:03;;;;;;;6.80;2.53;;;11.10;99.90;;;;;;5075123;28;20526;-69
2023/05/24 01:28:33;;;;;;;11.67;3.10;;;11.10;99.90;;;;;;5075168;28;20466;-69
2023/05/24 01:31:00;;;;;;;4.93;2.03;;;11.10;99.90;;;;;;5075306;28;20462;-69
2023/05/24 01:33:27;;;;;;;7.70;2.80;;;11.10;99.90;;;;;;5075068;28;20822;-69
2023/05/24 01:35:54;;;;;;;7.70;2.83;;;11.10;99.90;;;;;;5075015;28;20454;-69
2023/05/24 01:38:21;;;;;;;10.10;2.97;;;11.10;99.90;;;;;;5074774;28;20772;-69
2023/05/24 01:40:52;;;;;;;10.03;3.47;;;11.10;99.90;;;;;;5075049;28;20856;-69
2023/05/24 01:43:31;;;;;;;9.30;3.33;;;11.10;99.90;;;;;;5074661;28;20442;-69
2023/05/24 01:46:07;;;;;;;12.47;3.03;;;11.10;99.90;;;;;;5074965;28;20781;-69
2023/05/24 01:48:41;;;;;;;14.70;2.93;;;11.10;99.90;;;;;;5075292;28;20560;-69
2023/05/24 01:51:11;;;;;;;14.27;3.50;;;11.10;99.90;;;;;;5074958;28;20841;-69
2023/05/24 01:53:45;;;;;;;8.30;2.10;;;11.10;99.90;;;;;;5074716;28;20455;-69
2023/05/24 01:56:13;;;;;;;6.00;2.40;;;11.20;99.90;;;;;;5074712;28;20537;-70
2023/05/24 01:58:42;;;;;;;8.87;2.70;;;11.20;99.90;;;;;;5074598;28;20950;-69
2023/05/24 02:01:10;;;;;;;8.13;2.80;;;11.20;99.90;;;;;;5074644;28;20454;-69
2023/05/24 02:03:37;;;;;;;8.67;2.67;;;11.30;99.90;;;;;;5074695;28;20454;-69
2023/05/24 02:06:05;;;;;;;10.20;3.17;;;11.30;99.90;;;;;;5074804;28;20787;-69
2023/05/24 02:08:31;;;;;;;7.50;2.53;;;11.20;99.90;;;;;;5074471;28;20800;-69
2023/05/24 02:10:58;;;;;;;14.57;3.50;;;11.20;99.90;;;;;;5074389;28;20455;-69
2023/05/24 02:13:25;;;;;;;7.67;2.60;;;11.20;99.90;;;;;;5074809;28;20455;-69
2023/05/24 02:15:52;;;;;;;8.97;2.90;;;11.20;99.90;;;;;;5074390;28;20792;-69
2023/05/24 02:18:21;;;;;;;11.37;3.10;;;11.20;99.90;;;;;;5074386;28;20450;-69
2023/05/24 02:20:48;;;;;;;7.33;2.90;;;11.00;99.90;;;;;;5074174;28;20515;-69
2023/05/24 02:23:15;;;;;;;9.27;2.53;;;10.90;99.90;;;;;;5074637;28;20521;-69
2023/05/24 02:25:41;;;;;;;7.13;2.93;;;10.90;99.90;;;;;;5074101;28;20918;-69
2023/05/24 02:28:08;;;;;;;7.87;3.00;;;10.90;99.90;;;;;;5074303;28;20488;-69
2023/05/24 02:30:35;;;;;;;12.00;2.80;;;10.90;99.90;;;;;;5074068;28;20941;-69
2023/05/24 02:33:02;;;;;;;9.20;3.30;;;11.00;99.90;;;;;;5074497;28;20454;-69
2023/05/24 02:35:31;;;;;;;8.50;3.03;;;11.00;99.90;;;;;;5074293;28;20790;-69
2023/05/24 02:37:58;;;;;;;11.10;2.80;;;11.00;99.90;;;;;;5074473;28;20454;-70
2023/05/24 02:40:26;;;;;;;8.20;2.30;;;11.00;99.90;;;;;;5074327;28;20453;-70
2023/05/24 02:42:52;;;;;;;10.13;3.00;;;10.90;99.90;;;;;;5074136;28;20512;-69
2023/05/24 02:45:19;;;;;;;6.67;2.70;;;11.00;99.90;;;;;;5074293;28;20485;-70
2023/05/24 02:47:46;;;;;;;8.53;3.10;;;11.00;99.90;;;;;;5073782;28;20482;-68
2023/05/24 02:50:13;;;;;;;6.07;2.73;;;11.00;99.90;;;;;;5073809;28;20458;-68
2023/05/24 02:52:41;;;;;;;6.77;2.50;;;11.00;99.90;;;;;;5074255;28;20454;-68
2023/05/24 02:55:09;;;;;;;11.93;3.03;;;11.00;99.90;;;;;;5074137;28;20462;-68
2023/05/24 02:57:36;;;;;;;7.80;3.97;;;11.00;99.90;;;;;;5074168;28;20453;-69
2023/05/24 03:00:04;;;;;;;11.57;3.10;;;11.00;99.90;;;;;;5073879;28;20523;-70
2023/05/24 03:02:32;;;;;;;6.60;2.63;;;11.00;99.90;;;;;;5074390;28;20454;-70
2023/05/24 03:04:59;;;;;;;8.40;3.00;;;10.90;99.90;;;;;;5074256;28;20469;-69
2023/05/24 03:07:26;;;;;;;8.80;3.53;;;10.80;99.90;;;;;;5073536;28;20551;-68
2023/05/24 03:09:54;;;;;;;12.40;3.73;;;10.50;99.90;;;;;;5073950;28;20493;-68
2023/05/24 03:12:21;;;;;;;8.77;4.33;;;10.40;99.90;;;;;;5073943;28;20454;-70
2023/05/24 03:14:48;;;;;;;7.23;2.60;;;10.40;99.90;;;;;;5073544;28;20998;-68
2023/05/24 03:17:15;;;;;;;9.10;3.30;;;10.40;99.90;;;;;;5074006;28;20549;-69
2023/05/24 03:19:41;;;;;;;7.53;3.23;;;10.30;99.90;;;;;;5074292;28;20545;-68
2023/05/24 03:22:08;;;;;;;15.30;3.73;;;10.30;99.90;;;;;;5077558;28;20815;-68
2023/05/24 03:24:37;;;;;;;9.80;3.80;;;10.20;99.90;;;;;;5077623;28;20811;-68
2023/05/24 03:27:05;;;;;;;12.20;3.20;;;10.20;99.90;;;;;;5077614;28;20763;-68
2023/05/24 03:29:32;;;;;;;12.23;3.20;;;10.30;99.90;;;;;;5077106;28;20484;-69
2023/05/24 03:31:59;;;;;;;12.00;3.40;;;10.20;99.90;;;;;;5077443;28;20847;-69
2023/05/24 03:34:26;;;;;;;15.40;4.70;;;10.20;99.90;;;;;;5077298;28;20541;-70
2023/05/24 03:36:53;;;;;;;8.50;3.73;;;10.20;99.90;;;;;;5077001;28;20467;-69
2023/05/24 03:39:19;;;;;;;12.50;3.50;;;10.20;99.90;;;;;;5076949;28;20580;-70
2023/05/24 03:41:46;;;;;;;9.50;3.93;;;10.20;99.90;;;;;;5077208;28;20449;-69
2023/05/24 03:44:15;;;;;;;6.13;2.90;;;10.20;99.90;;;;;;5077249;28;20852;-70
2023/05/24 03:46:41;;;;;;;12.40;3.80;;;10.20;99.90;;;;;;5077484;28;20458;-69
2023/05/24 03:49:08;;;;;;;10.67;3.10;;;10.20;99.90;;;;;;5077468;28;20457;-69
2023/05/24 03:51:35;;;;;;;13.00;3.90;;;10.30;99.90;;;;;;5076764;28;20544;-68
2023/05/24 03:54:02;;;;;;;13.90;3.33;;;10.30;99.90;;;;;;5077380;28;20788;-68
2023/05/24 03:56:29;;;;;;;9.87;3.37;;;10.40;99.90;;;;;;5077013;28;20532;-68
2023/05/24 03:58:59;;;;;;;10.50;3.80;;;10.50;99.90;;;;;;5077056;28;20942;-68
2023/05/24 04:01:29;;;;;;;14.90;4.27;;;10.50;99.90;;;;;;5077004;28;20532;-69
2023/05/24 04:03:56;;;;;;;10.97;3.73;;;10.60;99.90;;;;;;5076765;28;20439;-69
2023/05/24 04:06:28;;;;;;;11.53;3.07;;;10.70;99.90;;;;;;5077206;28;20561;-69
2023/05/24 04:08:56;;;;;;;10.27;3.07;;;10.80;99.90;;;;;;5076596;28;20435;-69
2023/05/24 04:11:23;;;;;;;10.70;3.43;;;10.80;99.90;;;;;;5076518;28;20827;-69
2023/05/24 04:13:50;;;;;;;9.80;3.27;;;10.90;99.90;;;;;;5076731;28;20545;-70
2023/05/24 04:16:17;;;;;;;9.33;3.40;;;11.00;99.90;;;;;;5076724;28;20808;-69
2023/05/24 04:18:46;;;;;;;7.03;3.20;;;11.10;99.90;;;;;;5076862;28;20485;-69
2023/05/24 04:21:13;;;;;;;10.57;2.90;;;11.10;99.90;;;;;;5076176;28;20454;-69
2023/05/24 04:23:39;;;;;;;9.73;3.13;;;11.20;99.90;;;;;;5076639;28;20464;-69
2023/05/24 04:26:09;;;;;;;16.17;4.63;;;11.20;99.90;;;;;;5076543;28;20741;-69
2023/05/24 04:28:36;;;;;;;11.33;3.40;;;11.10;99.90;;;;;;5076070;28;20544;-69
2023/05/24 04:31:04;;;;;;;19.80;4.17;;;11.10;99.90;;;;;;5076044;28;20780;-69
2023/05/24 04:33:31;;;;;;;18.07;4.00;;;11.00;99.90;;;;;;5076836;28;20497;-68
2023/05/24 04:36:00;;;;;;;10.50;3.20;;;10.90;99.90;;;;;;5076287;28;20476;-69
2023/05/24 04:38:31;;;;;;;12.90;3.37;;;10.90;99.90;;;;;;5076000;28;20495;-69
2023/05/24 04:40:58;;;;;;;8.87;3.20;;;10.90;99.90;;;;;;5076264;28;20468;-69
2023/05/24 04:43:26;;;;;;;10.80;3.53;;;11.00;99.90;;;;;;5076075;28;20854;-69
2023/05/24 04:45:53;;;;;;;14.27;3.53;;;10.90;99.90;;;;;;5075909;28;20510;-68
2023/05/24 04:48:22;;;;;;;15.43;4.20;;;10.90;99.90;;;;;;5076196;28;20467;-69
2023/05/24 04:50:50;;;;;;;10.07;3.37;;;10.80;99.90;;;;;;5076022;28;20458;-68
2023/05/24 04:53:19;;;;;;;15.93;3.20;;;10.70;99.90;;;;;;5076052;28;20635;-70
2023/05/24 04:55:46;;;;;;;9.67;3.53;;;10.70;99.90;;;;;;5075914;28;20454;-68
2023/05/24 04:58:13;;;;;;;12.47;4.50;;;10.70;99.90;;;;;;5075679;28;20857;-69
2023/05/24 05:00:40;;;;;;;9.80;3.37;;;10.60;99.90;;;;;;5075390;28;20454;-69
2023/05/24 05:03:07;;;;;;;16.60;3.70;;;10.60;99.90;;;;;;5075564;28;20462;-69
2023/05/24 05:05:34;;;;;;;14.87;4.60;;;10.40;99.90;;;;;;5075783;28;20763;-69
2023/05/24 05:08:01;;;;;;;14.43;4.00;;;10.40;99.90;;;;;;5075569;28;20525;-69
2023/05/24 05:10:30;;;;;;;12.50;4.00;;;10.40;99.90;;;;;;5075680;28;20785;-69
2023/05/24 05:12:56;;;;;;;14.87;4.33;;;10.40;99.90;;;;;;5075569;28;20458;-69
2023/05/24 05:15:24;;;;;;;19.60;4.43;;;10.50;99.90;;;;;;5075557;28;20790;-69
2023/05/24 05:17:51;;;;;;;11.37;4.40;;;10.50;99.90;;;;;;5075422;28;20462;-68
2023/05/24 05:20:18;;;;;;;17.10;4.60;;;10.40;99.90;;;;;;5075451;28;20465;-68
2023/05/24 05:22:46;;;;;;;12.50;5.00;;;10.40;99.90;;;;;;5075302;28;20541;-69
2023/05/24 05:25:13;;;;;;;19.90;5.10;;;10.50;99.90;;;;;;5075577;28;20465;-69
2023/05/24 05:27:42;;;;;;;11.63;4.80;;;10.60;99.90;;;;;;5075514;28;20771;-69
2023/05/24 05:30:09;;;;;;;15.93;4.90;;;10.70;99.90;;;;;;5075690;28;20465;-69
2023/05/24 05:32:36;;;;;;;17.60;5.10;;;10.80;99.90;;;;;;5075380;28;20759;-69
2023/05/24 05:35:04;;;;;;;11.47;4.03;;;10.70;99.90;;;;;;5074718;28;20458;-69
2023/05/24 05:37:30;;;;;;;18.47;4.77;;;10.50;99.90;;;;;;5075236;28;20789;-69
2023/05/24 05:39:57;;;;;;;15.40;4.73;;;10.50;99.90;;;;;;5074792;28;20566;-69
2023/05/24 05:42:24;;;;;;;13.83;5.00;;;10.50;99.90;;;;;;5074221;28;20469;-69
2023/05/24 05:44:52;;;;;;;18.87;5.30;;;10.40;99.90;;;;;;5074695;28;20549;-69
2023/05/24 05:47:19;;;;;;;20.43;4.63;;;10.50;99.90;;;;;;5074746;28;20786;-69
2023/05/24 05:49:46;;;;;;;20.63;5.37;;;10.60;99.90;;;;;;5074658;28;20541;-70
2023/05/24 05:52:13;;;;;;;15.53;4.30;;;10.60;99.90;;;;;;5074799;28;20792;-69
2023/05/24 05:54:40;;;;;;;11.93;4.23;;;10.30;99.90;;;;;;5074610;28;20456;-69
2023/05/24 05:57:10;;;;;;;17.50;6.40;;;10.30;99.90;;;;;;5074624;28;20454;-69
2023/05/24 05:59:37;;;;;;;17.90;4.33;;;10.10;99.90;;;;;;5074820;28;20478;-70
2023/05/24 06:02:07;;;;;;;10.40;4.27;;;10.20;99.90;;;;;;5074260;28;20541;-68
2023/05/24 06:04:34;;;;;;;20.70;4.77;;;10.30;99.90;;;;;;5074479;28;20461;-70
2023/05/24 06:07:01;;;;;;;22.90;5.90;;;10.40;99.90;;;;;;5074742;28;20553;-67
2023/05/24 06:09:27;;;;;;;16.60;4.73;;;10.50;99.90;;;;;;5074604;28;20476;-68
2023/05/24 06:11:54;;;;;;;15.33;4.30;;;10.50;99.90;;;;;;5074898;28;20540;-70
2023/05/24 06:14:23;;;;;;;16.70;5.10;;;10.60;99.90;;;;;;5074322;28;20458;-69
2023/05/24 06:16:51;;;;;;;17.03;5.30;;;10.60;99.90;;;;;;5074278;28;20461;-68
2023/05/24 06:19:19;;;;;;;15.57;4.13;;;10.70;99.90;;;;;;5074475;28;20477;-68
2023/05/24 06:21:46;;;;;;;15.60;4.80;;;10.60;99.90;;;;;;5074033;28;20469;-68
2023/05/24 06:24:14;;;;;;;14.73;4.20;;;10.70;99.90;;;;;;5073933;28;20949;-68
2023/05/24 06:26:41;;;;;;;19.37;5.00;;;10.70;99.90;;;;;;5073783;28;20515;-68
2023/05/24 06:29:08;;;;;;;17.90;5.37;;;10.50;99.90;;;;;;5074087;28;20507;-68
2023/05/24 06:31:35;;;;;;;11.80;5.20;;;10.60;99.90;;;;;;5074593;28;20461;-68
2023/05/24 06:34:02;;;;;;;14.53;5.00;;;10.40;99.90;;;;;;5074689;28;20481;-68
2023/05/24 06:36:32;;;;;;;16.40;5.00;;;10.50;99.90;;;;;;5074491;28;20453;-69
2023/05/24 06:39:00;;;;;;;13.63;4.60;;;10.60;99.90;;;;;;5074252;28;20504;-69
2023/05/24 06:41:27;;;;;;;16.57;4.93;;;10.70;99.90;;;;;;5074546;28;20465;-69
2023/05/24 06:43:54;;;;;;;14.83;4.63;;;10.90;99.90;;;;;;5074100;28;20476;-69
2023/05/24 06:46:20;;;;;;;13.17;5.67;;;11.10;99.90;;;;;;5074382;28;20765;-69
2023/05/24 06:48:47;;;;;;;13.13;4.93;;;11.10;99.90;;;;;;5073993;28;20484;-69
2023/05/24 06:51:14;;;;;;;16.50;4.87;;;11.20;99.90;;;;;;5074450;28;20442;-69
2023/05/24 06:53:42;;;;;;;15.90;4.90;;;11.40;99.90;;;;;;5074504;28;20875;-69
2023/05/24 06:56:10;;;;;;;16.07;5.10;;;11.40;99.90;;;;;;5077981;28;20549;-69
2023/05/24 06:58:37;;;;;;;21.30;5.60;;;11.50;99.90;;;;;;5077695;28;21051;-69
2023/05/24 07:01:04;;;;;;;19.40;5.17;;;11.50;99.90;;;;;;5078194;28;20458;-69
2023/05/24 07:03:30;;;;;;;15.83;5.07;;;11.60;99.90;;;;;;5077740;28;20454;-69
2023/05/24 07:05:58;;;;;;;18.10;5.00;;;11.80;99.90;;;;;;5078247;28;20458;-69
2023/05/24 07:08:25;;;;;;;17.67;5.70;;;11.80;99.90;;;;;;5077697;28;20464;-69
2023/05/24 07:10:54;;;;;;;17.87;4.87;;;11.80;99.90;;;;;;5077909;28;20923;-69
2023/05/24 07:13:21;;;;;;;20.30;5.57;;;11.70;99.90;;;;;;5080225;28;20608;-70
2023/05/24 07:15:49;;;;;;;13.50;4.40;;;11.70;99.90;;;;;;5082448;28;20454;-70
2023/05/24 07:18:16;;;;;;;15.20;4.50;;;11.80;99.90;;;;;;5080753;28;20842;-69
2023/05/24 07:20:43;;;;;;;13.53;5.07;;;11.90;99.90;;;;;;5079075;28;20477;-69
2023/05/24 07:23:10;;;;;;;17.37;5.03;;;12.00;99.90;;;;;;5078549;28;20545;-69
2023/05/24 07:25:37;;;;;;;20.00;5.90;;;12.10;99.90;;;;;;5078619;28;20792;-69
2023/05/24 07:28:06;;;;;;;20.83;5.23;;;12.10;99.90;;;;;;5078767;28;20540;-69
2023/05/24 07:30:33;;;;;;;19.83;5.43;;;12.20;99.90;;;;;;5077726;28;20646;-69
2023/05/24 07:33:01;;;;;;;10.80;5.30;;;12.30;99.90;;;;;;5077537;28;20493;-68
2023/05/24 07:35:28;;;;;;;18.40;5.80;;;12.40;99.90;;;;;;5078215;28;20843;-69
2023/05/24 07:37:55;;;;;;;12.53;3.83;;;12.30;99.90;;;;;;5077609;28;20465;-69
2023/05/24 07:40:22;;;;;;;11.83;5.03;;;12.30;99.90;;;;;;5077277;28;20476;-68
2023/05/24 07:42:49;;;;;;;12.23;5.30;;;12.40;99.90;;;;;;5077388;28;20888;-69
2023/05/24 07:45:18;;;;;;;17.90;5.70;;;12.40;99.90;;;;;;5077432;28;20464;-69
2023/05/24 07:47:44;;;;;;;16.33;4.83;;;12.50;99.90;;;;;;5077211;28;20484;-69
2023/05/24 07:50:12;;;;;;;9.50;3.90;;;12.60;99.90;;;;;;5077135;28;20454;-68
2023/05/24 07:52:38;;;;;;;13.60;4.80;;;12.70;99.90;;;;;;5076986;28;20935;-68
2023/05/24 07:55:06;;;;;;;15.50;5.17;;;12.60;99.90;;;;;;5076725;28;20464;-68
2023/05/24 07:57:33;;;;;;;14.50;4.90;;;12.60;99.90;;;;;;5076932;28;20515;-68
2023/05/24 08:00:05;;;;;;;18.60;5.70;;;12.10;99.90;;;;;;5077490;28;20501;-68
2023/05/24 08:02:34;;;;;;;14.50;4.93;;;11.60;99.90;;;;;;5077245;28;20515;-69
2023/05/24 08:05:00;;;;;;;17.43;5.00;;;11.70;99.90;;;;;;5076673;28;20455;-68
2023/05/24 08:07:28;;;;;;;9.80;5.20;;;11.80;99.90;;;;;;5076018;28;20957;-69
2023/05/24 08:09:56;;;;;;;13.33;5.00;;;11.60;99.90;;;;;;5076576;28;20454;-68
2023/05/24 08:12:24;;;;;;;9.73;3.80;;;11.60;99.90;;;;;;5077167;28;20454;-68
2023/05/24 08:14:51;;;;;;;16.70;4.90;;;11.60;99.90;;;;;;5077705;28;20465;-68
2023/05/24 08:17:19;;;;;;;13.70;4.67;;;11.50;99.90;;;;;;5077538;28;20513;-68
2023/05/24 08:19:47;;;;;;;12.10;5.10;;;11.60;99.90;;;;;;5077143;28;20627;-68
2023/05/24 08:22:14;;;;;;;14.93;6.10;;;11.70;99.90;;;;;;5076769;28;20493;-69
2023/05/24 08:24:41;;;;;;;13.53;4.77;;;11.70;99.90;;;;;;5076527;28;20981;-68
2023/05/24 08:27:08;;;;;;;15.13;5.73;;;11.80;99.90;;;;;;5076316;28;20494;-70
2023/05/24 08:29:35;;;;;;;16.90;4.83;;;11.80;99.90;;;;;;5076853;28;20536;-68
2023/05/24 08:32:02;;;;;;;14.63;5.27;;;11.90;99.90;;;;;;5076673;28;20454;-69
2023/05/24 08:34:29;;;;;;;11.83;4.97;;;12.00;99.90;;;;;;5077001;28;20895;-67
2023/05/24 08:36:57;;;;;;;18.07;5.33;;;12.10;99.90;;;;;;5076508;28;20562;-69
2023/05/24 08:39:24;;;;;;;14.80;5.53;;;12.30;99.90;;;;;;5075862;28;20522;-69
2023/05/24 08:41:51;;;;;;;15.40;5.00;;;12.30;99.90;;;;;;5076635;28;20763;-67
2023/05/24 08:44:19;;;;;;;15.23;5.67;;;12.20;99.90;;;;;;5076841;28;20468;-68
2023/05/24 08:46:46;;;;;;;19.87;5.40;;;12.30;99.90;;;;;;5076210;28;20466;-68
2023/05/24 08:49:13;;;;;;;17.80;6.27;;;12.30;99.90;;;;;;5076718;28;20994;-67
2023/05/24 08:51:41;;;;;;;19.13;5.40;;;12.30;99.90;;;;;;5076758;28;20563;-68
2023/05/24 08:54:12;;;;;;;17.73;5.50;;;12.20;99.90;;;;;;5076596;28;20469;-68
2023/05/24 08:56:40;;;;;;;14.20;5.23;;;12.20;99.90;;;;;;5076281;28;20892;-68
2023/05/24 08:59:09;;;;;;;21.03;5.67;;;12.40;99.90;;;;;;5076052;28;20791;-68
2023/05/24 09:01:40;;;;;;;14.00;5.13;;;12.20;99.90;;;;;;5075969;28;20465;-67
2023/05/24 09:04:07;;;;;;;12.23;5.13;;;12.20;99.90;;;;;;5076127;28;20453;-68
2023/05/24 09:06:34;;;;;;;16.40;6.30;;;12.20;99.90;;;;;;5075962;28;20790;-68
2023/05/24 09:09:03;;;;;;;14.37;4.73;;;11.80;99.90;;;;;;5076085;28;20560;-69
2023/05/24 09:11:32;;;;;;;11.03;5.40;;;11.80;99.90;;;;;;5075637;28;20921;-69
2023/05/24 09:14:01;;;;;;;23.93;5.30;;;11.70;99.90;;;;;;5074861;28;20459;-69
2023/05/24 09:16:28;;;;;;;12.27;4.77;;;11.80;99.90;;;;;;5074869;28;20504;-69
2023/05/24 09:18:55;;;;;;;19.27;6.33;;;11.90;99.90;;;;;;5074443;28;20777;-69
2023/05/24 09:21:22;;;;;;;14.70;5.50;;;12.20;99.90;;;;;;5076025;28;20482;-69
2023/05/24 09:23:49;;;;;;;12.73;4.43;;;12.40;99.90;;;;;;5075552;28;20537;-69
2023/05/24 09:26:17;;;;;;;19.80;6.20;;;12.50;99.90;;;;;;5075468;28;20777;-69
2023/05/24 09:28:48;;;;;;;16.50;5.03;;;12.60;99.90;;;;;;5075475;28;20458;-70
2023/05/24 09:31:15;;;;;;;15.20;4.83;;;12.60;99.90;;;;;;5075838;28;20435;-69
2023/05/24 09:33:42;;;;;;;21.63;5.30;;;12.60;99.90;;;;;;5074934;28;20458;-69
2023/05/24 09:36:10;;;;;;;9.50;4.37;;;12.30;99.90;;;;;;5075336;28;20458;-68
2023/05/24 09:38:45;;;;;;;13.40;5.00;;;12.10;99.90;;;;;;5112434;27;20600;-69
2023/05/24 09:41:12;;;;;;;13.43;5.13;;;12.10;99.90;;;;;;5111968;28;20449;-69
2023/05/24 09:43:48;;;;;;;18.43;5.97;;;12.30;99.90;;;;;;5112407;28;20448;-69
2023/05/24 09:46:17;;;;;;;13.20;4.60;;;12.40;99.90;;;;;;5112232;28;20447;-69
2023/05/24 09:48:56;;;;;;;15.83;4.97;;;12.60;99.90;;;;;;5112453;28;20463;-69
2023/05/24 09:51:23;;;;;;;9.50;5.33;;;12.80;99.90;;;;;;5112106;28;20432;-69
2023/05/24 09:53:53;;;;;;;18.10;4.50;;;13.00;99.90;;;;;;5111919;28;20459;-69
2023/05/24 09:56:20;;;;;;;11.47;4.53;;;13.20;99.90;;;;;;5111719;28;20452;-69
2023/05/24 09:58:47;;;;;;;10.13;4.30;;;13.30;99.90;;;;;;5111929;28;20478;-68
2023/05/24 10:01:17;;;;;;;14.60;4.50;;;13.30;99.90;;;;;;5111891;28;20548;-69
2023/05/24 10:03:52;;;;;;;11.60;4.03;;;13.40;99.90;;;;;;5112048;28;20441;-69
2023/05/24 10:06:20;;;;;;;16.83;5.00;;;13.40;99.90;;;;;;5111870;28;20826;-69
2023/05/24 10:08:48;;;;;;;14.50;4.60;;;13.40;99.90;;;;;;5111494;28;20452;-69
2023/05/24 10:11:16;;;;;;;8.47;4.53;;;13.20;99.90;;;;;;5111224;28;20453;-68
2023/05/24 10:13:43;;;;;;;11.60;4.57;;;13.20;99.90;;;;;;5111340;28;20463;-69
2023/05/24 10:16:10;;;;;;;9.30;4.27;;;13.30;99.90;;;;;;5111255;28;20551;-68
2023/05/24 10:18:38;;;;;;;9.70;4.27;;;13.20;99.90;;;;;;5111038;28;20516;-68
2023/05/24 10:21:08;;;;;;;13.13;4.40;;;13.20;99.90;;;;;;5111036;28;20573;-68
2023/05/24 10:23:38;;;;;;;16.70;5.10;;;13.20;99.90;;;;;;5111314;28;20513;-69
2023/05/24 10:26:07;;;;;;;14.33;4.00;;;13.40;99.90;;;;;;5111631;28;20462;-68
2023/05/24 10:28:40;;;;;;;8.90;3.60;;;13.60;99.90;;;;;;5111470;28;20480;-69
2023/05/24 10:31:11;;;;;;;11.40;4.33;;;13.80;99.90;;;;;;5111240;28;20437;-68
2023/05/24 10:33:38;;;;;;;13.53;3.30;;;13.90;99.90;;;;;;5110986;28;20502;-68
2023/05/24 10:36:08;;;;;;;6.03;3.57;;;14.10;99.90;;;;;;5110972;28;20457;-68
2023/05/24 10:38:38;;;;;;;9.90;4.00;;;14.20;99.90;;;;;;5110585;28;20819;-69
2023/05/24 10:41:06;;;;;;;6.27;3.50;;;14.40;99.90;;;;;;5111198;28;20453;-69
2023/05/24 10:43:35;;;;;;;10.00;3.63;;;14.60;99.90;;;;;;5110717;28;20497;-69
2023/05/24 10:46:03;;;;;;;10.73;2.97;;;14.80;99.90;;;;;;5110980;28;20451;-68
2023/05/24 10:48:38;;;;;;;12.60;4.43;;;14.80;99.90;;;;;;5106494;28;20531;-69
2023/05/24 10:51:31;;;;;;;9.10;3.13;;;14.90;99.90;;;;;;5097146;28;20453;-68
2023/05/24 10:54:10;;;;;;;5.97;3.00;;;14.60;99.90;;;;;;5097267;28;20756;-68
2023/05/24 10:56:41;;;;;;;9.07;3.63;;;14.60;99.90;;;;;;5097083;28;20894;-68
2023/05/24 10:59:09;;;;;;;9.90;3.20;;;14.60;99.90;;;;;;5097250;28;20758;-69
2023/05/24 11:01:36;;;;;;;11.27;3.70;;;14.70;99.90;;;;;;5097162;28;20449;-68
2023/05/24 11:04:10;;;;;;;6.93;4.00;;;14.70;99.90;;;;;;5096922;28;20793;-67
2023/05/24 11:06:48;;;;;;;10.73;4.20;;;14.30;99.90;;;;;;5097016;28;20752;-69
2023/05/24 11:09:15;;;;;;;7.33;3.37;;;14.00;99.90;;;;;;5096500;28;20963;-69
2023/05/24 11:11:45;;;;;;;8.80;4.27;;;13.70;99.90;;;;;;5096728;28;20965;-69
2023/05/24 11:14:14;;;;;;;9.87;3.80;;;13.80;99.90;;;;;;5096957;28;20484;-69
2023/05/24 11:16:44;;;;;;;9.30;4.57;;;13.90;99.90;;;;;;5096452;28;20543;-68
2023/05/24 11:19:18;;;;;;;15.10;3.83;;;13.70;99.90;;;;;;5096321;28;20477;-68
2023/05/24 11:21:47;;;;;;;8.33;3.70;;;13.60;99.90;;;;;;5096686;28;20464;-69
2023/05/24 11:24:15;;;;;;;9.40;3.90;;;13.70;99.90;;;;;;5096306;28;20480;-69
2023/05/24 11:26:43;;;;;;;8.63;4.13;;;13.80;99.90;;;;;;5096602;28;20483;-67
2023/05/24 11:29:12;;;;;;;11.50;3.20;;;13.80;99.90;;;;;;5096387;28;20778;-67
2023/05/24 11:31:47;;;;;;;6.47;3.03;;;13.90;99.90;;;;;;5096672;28;20822;-68
2023/05/24 11:34:14;;;;;;;6.67;3.13;;;14.00;99.90;;;;;;5096421;28;20540;-67
2023/05/24 11:36:42;;;;;;;9.00;3.50;;;14.20;99.90;;;;;;5096243;28;20477;-68
2023/05/24 11:39:09;;;;;;;6.13;2.97;;;14.40;99.90;;;;;;5096120;28;20462;-68
2023/05/24 11:41:38;;;;;;;4.37;2.80;;;14.60;99.90;;;;;;5096389;28;20457;-69
2023/05/24 11:44:05;;;;;;;12.40;3.60;;;14.90;99.90;;;;;;5096427;28;20475;-69
2023/05/24 11:46:32;;;;;;;7.50;3.40;;;15.00;99.90;;;;;;5095804;28;20548;-68
2023/05/24 11:49:02;;;;;;;9.60;3.17;;;15.30;99.90;;;;;;5096098;28;20453;-69
2023/05/24 11:51:30;;;;;;;12.13;4.03;;;15.60;99.90;;;;;;5096254;28;20485;-69
2023/05/24 11:53:57;;;;;;;6.40;3.43;;;16.00;99.90;;;;;;5096536;28;20453;-69
2023/05/24 11:56:26;;;;;;;11.57;4.03;;;16.40;99.90;;;;;;5095706;28;20561;-69
2023/05/24 11:59:00;;;;;;;4.83;3.10;;;16.80;99.90;;;;;;5095697;28;20538;-69
2023/05/24 12:01:27;;;;;;;6.97;3.37;;;17.50;99.90;;;;;;5094992;28;20767;-69
2023/05/24 12:03:54;;;;;;;5.83;2.83;;;17.90;99.90;;;;;;5095898;28;20473;-69
2023/05/24 12:06:22;;;;;;;5.30;3.23;;;18.20;99.90;;;;;;5095398;28;20457;-69
2023/05/24 12:08:50;;;;;;;9.43;3.10;;;17.50;99.90;;;;;;5095674;28;20773;-68
2023/05/24 12:11:17;;;;;;;5.53;3.10;;;17.00;99.90;;;;;;5095268;28;20453;-69
2023/05/24 12:13:44;;;;;;;22.87;12.97;;;16.80;99.90;;;;;;5095513;28;20454;-69
2023/05/24 12:16:13;;;;;;;11.50;3.67;;;16.60;99.90;;;;;;5095536;28;20453;-68
2023/05/24 12:18:40;;;;;;;7.77;3.40;;;16.50;99.90;;;;;;5095641;28;20804;-68
2023/05/24 12:21:11;;;;;;;6.30;3.57;;;15.60;99.90;;;;;;5095233;28;20584;-68
2023/05/24 12:23:39;;;;;;;10.57;4.03;;;14.90;99.90;;;;;;5095092;28;20453;-69
2023/05/24 12:26:06;;;;;;;5.50;3.37;;;14.50;99.90;;;;;;5095209;28;20541;-69
2023/05/24 12:28:35;;;;;;;7.17;2.97;;;14.40;99.90;;;;;;5094884;28;20965;-68
2023/05/24 12:31:03;;;;;;;9.63;3.93;;;14.20;99.90;;;;;;5094816;28;20540;-68
2023/05/24 12:33:50;;;;;;;8.93;3.60;;;14.30;99.90;;;;;;5095342;28;20820;-72
2023/05/24 12:36:17;;;;;;;8.13;3.60;;;14.40;99.90;;;;;;5094811;28;20497;-68
2023/05/24 12:38:45;;;;;;;8.97;3.30;;;14.70;99.90;;;;;;5095415;28;20491;-68
2023/05/24 12:41:12;;;;;;;5.27;3.13;;;14.80;99.90;;;;;;5095286;28;20485;-68
2023/05/24 12:43:40;;;;;;;10.20;3.73;;;15.00;99.90;;;;;;5095132;28;20453;-69
2023/05/24 12:46:07;;;;;;;6.67;3.77;;;15.20;99.90;;;;;;5095087;28;20472;-68